ADDS METAR Data INFO
IDs: Format: Raw Decoded Include TAF

Data at: 1112 UTC 13 Dec 2017

KCKP 131055Z AUTO 29014G22KT 10SM CLR 08/M04 A2950 RMK AO2 T00751037
KCKP 131035Z AUTO 29016G23KT 10SM CLR 07/M04 A2952 RMK AO2 T00681040
KCKP 131015Z AUTO 29009G15KT 10SM CLR 04/M05 A2953 RMK AO2 T00361049
KCKP 130955Z AUTO 26008KT 10SM CLR 02/M05 A2953 RMK AO2 T00181052
KCKP 130935Z AUTO 25009KT 10SM CLR 02/M05 A2953 RMK AO2 T00181052
KCKP 130915Z AUTO 24009KT 10SM CLR 02/M05 A2953 RMK AO2 T00181050
KCKP 130855Z AUTO 23007KT 10SM CLR 02/M05 A2953 RMK AO2 T00211048
KCKP 130835Z AUTO 23006G09KT 10SM CLR 02/M05 A2954 RMK AO2 T00211047
KCKP 130815Z AUTO 22007KT 10SM CLR 01/M04 A2954 RMK AO2 T00081045
KCKP 130755Z AUTO 20006KT 10SM CLR 00/M05 A2955 RMK AO2 T00001046
KCKP 130735Z AUTO 22005KT 10SM CLR 00/M04 A2957 RMK AO2 T00031045
KCKP 130715Z AUTO 21005KT 10SM CLR 00/M04 A2958 RMK AO2 T00021045
KCKP 130655Z AUTO 20005KT 10SM CLR 00/M05 A2959 RMK AO2 T00021046
KCKP 130635Z AUTO 21006KT 10SM CLR 01/M04 A2961 RMK AO2 T00071045
KCKP 130615Z AUTO 22007KT 10SM CLR 01/M04 A2964 RMK AO2 T00081042
KCKP 130555Z AUTO 22008KT 10SM CLR 01/M04 A2966 RMK AO2 T00071039 10007 21020 400311124
KCKP 130535Z AUTO 22007KT 10SM CLR 00/M03 A2968 RMK AO2 T00031035
KCKP 130515Z AUTO 22005KT 10SM CLR 00/M04 A2969 RMK AO2 T00001036
KCKP 130455Z AUTO 21005KT 10SM CLR 00/M03 A2970 RMK AO2 T00001032
KCKP 130435Z AUTO 21005KT 10SM CLR 00/M03 A2972 RMK AO2 T10031033
KCKP 130415Z AUTO 21004KT 10SM CLR M01/M04 A2974 RMK AO2 T10081036
KCKP 130355Z AUTO 22003KT 10SM CLR 00/M03 A2975 RMK AO2 T10031031
KCKP 130335Z AUTO 21004KT 10SM CLR 00/M03 A2976 RMK AO2 T10051031
KCKP 130315Z AUTO 21006KT 10SM CLR 00/M03 A2977 RMK AO2 T10021028
KCKP 130255Z AUTO 21007KT 10SM CLR M01/M03 A2979 RMK AO2 T10111031
KCKP 130235Z AUTO 17006KT 10SM CLR M01/M03 A2981 RMK AO2 T10151035
KCKP 130215Z AUTO 18007KT 10SM CLR M02/M04 A2983 RMK AO2 T10161036
KCKP 130155Z AUTO 18007KT 10SM CLR M02/M04 A2985 RMK AO2 T10161038
KCKP 130135Z AUTO 17007KT 10SM CLR M01/M04 A2987 RMK AO2 T10151039
KCKP 130115Z AUTO 18006KT 10SM CLR M02/M04 A2989 RMK AO2 T10191041
KCKP 130055Z AUTO 19006KT 10SM CLR M01/M04 A2989 RMK AO2 T10151042
KCKP 130035Z AUTO 18005KT 10SM CLR M02/M04 A2990 RMK AO2 T10201045
KCKP 130015Z AUTO 18006KT 10SM CLR M02/M05 A2991 RMK AO2 T10191047
KCKP 122355Z AUTO 17006KT 10SM CLR M01/M05 A2992 RMK AO2 T10151046 10031 21020
KCKP 122335Z AUTO 18006KT 10SM CLR M01/M05 A2994 RMK AO2 T10111047
KCKP 122315Z AUTO 17004KT 10SM CLR 00/M04 A2996 RMK AO2 T10011043
KCKP 122255Z AUTO 20006KT 10SM CLR 00/M04 A2996 RMK AO2 T00021043
KCKP 122235Z AUTO 20008KT 10SM CLR 01/M04 A2996 RMK AO2 T00101043
KCKP 122215Z AUTO 21008KT 10SM CLR 02/M04 A2999 RMK AO2 T00171043
KCKP 122155Z AUTO 22010KT 10SM CLR 02/M04 A3000 RMK AO2 T00241043
KCKP 122135Z AUTO 23010KT 10SM SCT070 03/M04 A3001 RMK AO2 T00271040
KCKP 122115Z AUTO 23009KT 10SM CLR 03/M04 A3003 RMK AO2 T00301042
KCKP 122055Z AUTO 24010KT 10SM CLR 03/M04 A3003 RMK AO2 T00301042
KCKP 122035Z AUTO 25009KT 10SM CLR 03/M04 A3005 RMK AO2 T00261041
KCKP 122015Z AUTO 25007G18KT 10SM CLR 03/M04 A3006 RMK AO2 T00271040
KCKP 121955Z AUTO 25009G16KT 10SM CLR 02/M04 A3007 RMK AO2 T00201042
KCKP 121935Z AUTO 24009KT 10SM SCT031 02/M04 A3008 RMK AO2 T00201044
KCKP 121915Z AUTO 25009KT 10SM BKN033 02/M04 A3011 RMK AO2 T00161045
KCKP 121855Z AUTO 25006KT 210V280 10SM OVC033 01/M05 A3013 RMK AO2 T00111050
KCKP 121835Z AUTO 24007KT 10SM SCT033 00/M06 A3014 RMK AO2 T00031057
KCKP 121815Z AUTO 23008KT 10SM CLR M01/M07 A3015 RMK AO2 T10111071
KCKP 121755Z AUTO 23009KT 10SM CLR M02/M08 A3016 RMK AO2 T10211084 11019 21124
KCKP 121735Z AUTO 25006KT 10SM CLR M02/M08 A3019 RMK AO2 T10211085
KCKP 121715Z AUTO 25006KT 10SM CLR M02/M08 A3021 RMK AO2 T10251080
KCKP 121655Z AUTO 25007KT 10SM CLR M03/M08 A3023 RMK AO2 T10351079
KCKP 121635Z AUTO 24007KT 10SM CLR M05/M08 A3023 RMK AO2 T10461077
KCKP 121615Z AUTO 25004KT 10SM CLR M05/M08 A3023 RMK AO2 T10531080
KCKP 121555Z AUTO 26004KT 10SM CLR M06/M09 A3024 RMK AO2 T10651086
KCKP 121535Z AUTO 22003KT 10SM CLR M07/M09 A3025 RMK AO2 T10731092
KCKP 121515Z AUTO 00000KT 10SM CLR M08/M10 A3026 RMK AO2 T10821097
KCKP 121455Z AUTO 26003KT 10SM CLR M09/M10 A3026 RMK AO2 T10921105
KCKP 121435Z AUTO 00000KT 10SM CLR M10/M11 A3028 RMK AO2 T11011111
KCKP 121415Z AUTO 00000KT 10SM CLR M11/M12 A3028 RMK AO2 T11121120
KCKP 121355Z AUTO 23003KT 10SM CLR M12/M13 A3028 RMK AO2 T11241133
KCKP 121335Z AUTO 00000KT 10SM CLR M12/M13 A3028 RMK AO2 T11161126
KCKP 121315Z AUTO 00000KT 10SM CLR M11/M12 A3029 RMK AO2 T11111121
KCKP 121255Z AUTO 27004KT 10SM CLR M11/M12 A3029 RMK AO2 T11101120
KCKP 121235Z AUTO 00000KT 10SM CLR M11/M12 A3029 RMK AO2 T11101118
KCKP 121215Z AUTO 00000KT 10SM CLR M11/M12 A3030 RMK AO2 T11101118
KCKP 121155Z AUTO 27003KT 10SM CLR M11/M11 A3030 RMK AO2 T11081115 11083 21120
KCKP 121135Z AUTO 29003KT 10SM CLR M11/M12 A3030 RMK AO2 T11111120
KCKP 121115Z AUTO 00000KT 10SM CLR M11/M12 A3029 RMK AO2 T11131122
KCKP 121055Z AUTO 28004KT 10SM CLR M11/M12 A3030 RMK AO2 T11141122
KCKP 121035Z AUTO 26003KT 10SM CLR M11/M12 A3030 RMK AO2 T11111120
KCKP 121015Z AUTO 25003KT 10SM CLR M11/M12 A3031 RMK AO2 T11081120
KCKP 120955Z AUTO 00000KT 10SM CLR M10/M11 A3030 RMK AO2 T11011115
KCKP 120935Z AUTO 31005KT 10SM CLR M10/M11 A3031 RMK AO2 T11011115
KCKP 120915Z AUTO 33003KT 10SM CLR M10/M11 A3031 RMK AO2 T11001115
KCKP 120855Z AUTO 32004KT 10SM CLR M10/M11 A3032 RMK AO2 T10991112
KCKP 120835Z AUTO 34004KT 10SM CLR M10/M11 A3031 RMK AO2 T10981111
KCKP 120815Z AUTO 35006KT 10SM CLR M10/M11 A3032 RMK AO2 T10971111
KCKP 120755Z AUTO 35006KT 10SM CLR M09/M11 A3031 RMK AO2 T10951110
KCKP 120735Z AUTO 34006KT 10SM CLR M09/M11 A3031 RMK AO2 T10951110
KCKP 120715Z AUTO 34005KT 10SM CLR M09/M11 A3032 RMK AO2 T10921110
KCKP 120655Z AUTO 33007KT 10SM CLR M09/M11 A3032 RMK AO2 T10901112
KCKP 120635Z AUTO 35008KT 10SM CLR M09/M11 A3032 RMK AO2 T10861111
KCKP 120615Z AUTO 36008KT 10SM CLR M08/M11 A3032 RMK AO2 T10851110
KCKP 120555Z AUTO 36007KT 10SM CLR M08/M11 A3033 RMK AO2 T10821111 11016 21082 400551082
KCKP 120535Z AUTO 34008G14KT 10SM CLR M08/M11 A3033 RMK AO2 T10811107
KCKP 120515Z AUTO 34007KT 10SM CLR M08/M11 A3033 RMK AO2 T10781106
KCKP 120455Z AUTO 34009KT 10SM CLR M07/M10 A3033 RMK AO2 T10751104
KCKP 120435Z AUTO 35009G15KT 10SM CLR M07/M10 A3032 RMK AO2 T10721102
KCKP 120415Z AUTO 33008KT 10SM CLR M07/M10 A3031 RMK AO2 T10701100
KCKP 120355Z AUTO 34010G16KT 10SM CLR M06/M10 A3030 RMK AO2 T10651097
KCKP 120335Z AUTO 34009G16KT 10SM CLR M06/M09 A3029 RMK AO2 T10621095
KCKP 120315Z AUTO 34013G19KT 10SM CLR M06/M09 A3029 RMK AO2 T10601092
KCKP 120255Z AUTO 33013G19KT 10SM CLR M06/M09 A3028 RMK AO2 T10561090
KCKP 120235Z AUTO 34013G16KT 10SM CLR M05/M08 A3026 RMK AO2 T10501081
KCKP 120215Z AUTO 34016G21KT 10SM CLR M04/M08 A3025 RMK AO2 T10441076
KCKP 120155Z AUTO 34011G17KT 10SM CLR M04/M06 A3024 RMK AO2 T10401065
KCKP 120135Z AUTO 34010G17KT 10SM CLR M04/M06 A3024 RMK AO2 T10361061
KCKP 120115Z AUTO 34011KT 10SM CLR M03/M06 A3023 RMK AO2 T10331060
KCKP 120055Z AUTO 34009G14KT 10SM SCT023 M03/M06 A3021 RMK AO2 T10301058
KCKP 120035Z AUTO 34012G19KT 10SM BKN023 M02/M06 A3020 RMK AO2 T10251057
KCKP 120015Z AUTO 35012G20KT 10SM BKN025 M02/M06 A3019 RMK AO2 T10221056
KCKP 112355Z AUTO 34013G22KT 10SM BKN025 M02/M05 A3017 RMK AO2 T10161052 10052 21016
KCKP 112335Z AUTO 35013G22KT 10SM SCT025 M01/M05 A3015 RMK AO2 T10131051
KCKP 112315Z AUTO 35013G19KT 10SM OVC025 00/M04 A3014 RMK AO2 T10021043